createdAt,value
2019-01-26T00:00:32.666Z,66.25
2019-01-26T00:05:34.824Z,66.37
2019-01-26T00:10:37.403Z,66.96
2019-01-26T00:15:40.043Z,66.97
2019-01-26T00:20:42.493Z,66.92
2019-01-26T00:25:44.622Z,67.37
2019-01-26T00:30:46.947Z,67.48
2019-01-26T00:35:49.662Z,67.81
2019-01-26T00:40:52.555Z,68.19
2019-01-26T00:45:55.677Z,68.07
2019-01-26T00:50:59.295Z,68.45
2019-01-26T00:56:01.760Z,68.59
2019-01-26T01:01:04.388Z,69.07
2019-01-26T01:06:06.974Z,69.88
2019-01-26T01:11:10.764Z,70.26
2019-01-26T01:16:12.957Z,70.80
2019-01-26T01:21:15.491Z,71.11
2019-01-26T01:26:17.820Z,71.68
2019-01-26T01:31:20.085Z,71.83
2019-01-26T01:36:22.384Z,71.99
2019-01-26T01:41:24.545Z,72.25
2019-01-26T01:46:27.302Z,72.93
2019-01-26T01:51:29.497Z,73.29
2019-01-26T01:56:31.766Z,73.59
2019-01-26T02:01:34.464Z,74.10
2019-01-26T02:06:36.870Z,74.53
2019-01-26T02:11:39.462Z,74.85
2019-01-26T02:16:42.024Z,75.19
2019-01-26T02:21:45.924Z,75.38
2019-01-26T02:26:48.795Z,75.70
2019-01-26T02:31:51.578Z,75.68
2019-01-26T02:36:53.790Z,75.90
2019-01-26T02:41:56.283Z,76.26
2019-01-26T02:46:58.833Z,76.39
2019-01-26T02:52:01.347Z,76.73
2019-01-26T02:57:03.782Z,77.04
2019-01-26T03:02:06.068Z,77.12
2019-01-26T03:07:09.562Z,77.51
2019-01-26T03:12:11.748Z,77.46
2019-01-26T03:17:15.234Z,77.92
2019-01-26T03:22:17.826Z,78.22
2019-01-26T03:27:20.667Z,78.45
2019-01-26T03:32:23.458Z,78.61
2019-01-26T03:37:26.335Z,78.81
2019-01-26T03:42:28.992Z,78.95
2019-01-26T03:47:31.550Z,79.31
2019-01-26T03:52:34.405Z,79.51
2019-01-26T03:57:37.761Z,79.59
2019-01-26T04:02:40.274Z,79.61
2019-01-26T04:07:43.278Z,79.77
2019-01-26T04:12:45.978Z,80.01
2019-01-26T04:17:49.092Z,80.08
2019-01-26T04:22:51.716Z,80.05
2019-01-26T04:27:54.549Z,80.16
2019-01-26T04:32:57.562Z,80.25
2019-01-26T04:38:00.101Z,80.46
2019-01-26T04:43:02.879Z,80.62
2019-01-26T04:48:05.365Z,80.85
2019-01-26T04:53:07.684Z,81.09
2019-01-26T04:58:09.984Z,81.14
2019-01-26T05:03:12.445Z,81.28
2019-01-26T05:08:14.948Z,81.57
2019-01-26T05:13:17.483Z,81.69
2019-01-26T05:18:20.010Z,81.91
2019-01-26T05:23:22.612Z,81.96
2019-01-26T05:28:25.294Z,81.97
2019-01-26T05:33:27.586Z,82.06
2019-01-26T05:38:30.171Z,82.08
2019-01-26T05:43:32.398Z,82.33
2019-01-26T05:48:34.740Z,82.37
2019-01-26T05:53:36.960Z,82.68
2019-01-26T05:58:39.701Z,82.91
2019-01-26T06:03:42.734Z,83.16
2019-01-26T06:08:44.969Z,83.31
2019-01-26T06:13:47.456Z,83.35
2019-01-26T06:18:49.662Z,83.49
2019-01-26T06:23:52.136Z,83.63
2019-01-26T06:28:55.470Z,83.88
2019-01-26T06:33:57.760Z,84.07
2019-01-26T06:39:00.713Z,84.17
2019-01-26T06:44:03.047Z,84.30
2019-01-26T06:49:05.273Z,84.39
2019-01-26T06:54:07.636Z,84.47
2019-01-26T06:59:09.974Z,84.62
2019-01-26T07:04:16.134Z,84.74
2019-01-26T07:09:18.331Z,84.89
2019-01-26T07:14:21.404Z,85.00
2019-01-26T07:19:24.307Z,85.04
2019-01-26T07:24:26.702Z,85.11
2019-01-26T07:29:28.901Z,85.16
2019-01-26T07:34:31.260Z,85.21
2019-01-26T07:39:33.584Z,85.21
2019-01-26T07:44:36.180Z,85.23
2019-01-26T07:49:38.664Z,85.29
2019-01-26T07:54:41.573Z,85.34
2019-01-26T07:59:44.070Z,85.43
2019-01-26T08:04:47.098Z,85.45
2019-01-26T08:09:49.352Z,85.56
2019-01-26T08:14:52.321Z,85.60
2019-01-26T08:19:56.579Z,85.65
2019-01-26T08:24:59.253Z,85.70
2019-01-26T08:30:01.970Z,85.71
2019-01-26T08:35:05.944Z,85.79
2019-01-26T08:40:10.955Z,85.87
2019-01-26T08:45:14.228Z,85.85
2019-01-26T08:50:20.503Z,85.90
2019-01-26T08:55:23.655Z,85.94
2019-01-26T09:00:27.574Z,85.95
2019-01-26T09:05:32.785Z,86.00
2019-01-26T09:10:35.363Z,86.06
2019-01-26T09:15:37.945Z,86.12
2019-01-26T09:20:40.788Z,86.15
2019-01-26T09:25:46.433Z,86.22
2019-01-26T09:30:48.924Z,86.30
2019-01-26T09:35:51.967Z,86.30
2019-01-26T09:40:56.889Z,86.29
2019-01-26T09:46:01.368Z,86.37
2019-01-26T09:51:04.276Z,86.35
2019-01-26T09:56:09.044Z,86.37
2019-01-26T10:01:11.632Z,86.34
2019-01-26T10:06:14.076Z,86.40
2019-01-26T10:11:16.483Z,86.42
2019-01-26T10:16:20.093Z,86.40
2019-01-26T10:21:22.906Z,86.39
2019-01-26T10:26:25.435Z,86.41
2019-01-26T10:31:27.747Z,86.36
2019-01-26T10:36:40.111Z,86.33
2019-01-26T10:42:02.232Z,86.42
2019-01-26T10:47:05.901Z,86.46
2019-01-26T10:52:09.471Z,86.51
2019-01-26T10:57:12.619Z,86.50
2019-01-26T11:02:15.882Z,86.48
2019-01-26T11:07:18.773Z,86.44
2019-01-26T11:12:21.295Z,86.42
2019-01-26T11:17:24.552Z,86.46
2019-01-26T11:22:27.008Z,86.39
2019-01-26T11:27:30.007Z,86.38
2019-01-26T11:32:32.811Z,86.36
2019-01-26T11:37:35.192Z,86.30
2019-01-26T11:42:37.684Z,86.25
2019-01-26T11:47:40.142Z,86.16
2019-01-26T11:52:42.647Z,86.16
2019-01-26T11:57:44.880Z,86.05
2019-01-26T12:02:53.669Z,86.06
2019-01-26T12:07:56.007Z,86.00
2019-01-26T12:12:58.348Z,85.85
2019-01-26T12:18:02.064Z,85.85
2019-01-26T12:23:04.389Z,85.77
2019-01-26T12:28:07.060Z,85.49
2019-01-26T12:33:09.851Z,85.41
2019-01-26T12:38:12.645Z,85.33
2019-01-26T12:43:15.304Z,85.31
2019-01-26T12:48:18.314Z,85.31
2019-01-26T12:53:22.184Z,85.21
2019-01-26T12:58:25.445Z,85.19
2019-01-26T13:03:27.658Z,84.88
2019-01-26T13:08:30.190Z,84.96
2019-01-26T13:13:33.570Z,84.77
2019-01-26T13:18:36.198Z,84.78
2019-01-26T13:23:38.943Z,84.60
2019-01-26T13:28:41.762Z,84.33
2019-01-26T13:33:44.502Z,84.52
2019-01-26T13:38:46.945Z,84.25
2019-01-26T13:43:49.851Z,84.07
2019-01-26T13:48:52.312Z,84.13
2019-01-26T13:53:55.013Z,83.99
2019-01-26T13:58:57.334Z,83.90
2019-01-26T14:03:59.846Z,83.99
2019-01-26T14:09:04.523Z,83.98
2019-01-26T14:14:09.246Z,84.04
2019-01-26T14:19:12.342Z,84.05
2019-01-26T14:24:16.158Z,83.96
2019-01-26T14:29:18.352Z,83.99
2019-01-26T14:34:20.603Z,83.78
2019-01-26T14:39:23.088Z,83.80
2019-01-26T14:44:25.892Z,83.64
2019-01-26T14:49:28.343Z,83.76
2019-01-26T14:54:31.089Z,83.77
2019-01-26T14:59:36.445Z,83.81
2019-01-26T15:04:39.044Z,83.74
2019-01-26T15:09:41.443Z,83.83
2019-01-26T15:14:43.705Z,83.79
2019-01-26T15:20:05.815Z,83.72
2019-01-26T15:25:07.118Z,83.85
2019-01-26T15:30:45.557Z,83.88
2019-01-26T15:35:48.618Z,83.90
2019-01-26T15:40:51.527Z,83.81
2019-01-26T15:45:54.851Z,83.73
2019-01-26T15:50:57.471Z,83.70
2019-01-26T15:56:20.155Z,83.71
2019-01-26T16:01:22.629Z,83.74
2019-01-26T16:06:25.366Z,83.80
2019-01-26T16:11:27.721Z,83.65
2019-01-26T16:16:30.068Z,83.68
2019-01-26T16:21:32.330Z,83.67
2019-01-26T16:26:34.921Z,83.67
2019-01-26T16:31:37.781Z,83.69
2019-01-26T16:36:40.127Z,83.60
2019-01-26T16:41:44.301Z,83.50
2019-01-26T16:46:47.229Z,83.54
2019-01-26T16:51:50.200Z,83.48
2019-01-26T16:56:53.923Z,83.60
2019-01-26T17:01:56.376Z,83.58
2019-01-26T17:07:02.890Z,83.52
2019-01-26T17:12:05.965Z,83.56
2019-01-26T17:17:08.870Z,83.50
2019-01-26T17:22:11.152Z,83.50
2019-01-26T17:27:13.715Z,83.50
2019-01-26T17:32:16.175Z,83.45
2019-01-26T17:37:18.629Z,83.59
2019-01-26T17:42:21.382Z,83.55
2019-01-26T17:47:23.642Z,83.44
2019-01-26T17:52:26.201Z,83.57
2019-01-26T17:57:31.313Z,83.62
2019-01-26T18:02:34.398Z,83.72
2019-01-26T18:07:37.413Z,83.79
2019-01-26T18:12:39.710Z,83.90
2019-01-26T18:17:45.653Z,83.98
2019-01-26T18:23:14.683Z,84.07
2019-01-26T18:28:17.594Z,84.18
2019-01-26T18:33:20.065Z,84.18
2019-01-26T18:38:22.277Z,84.19
2019-01-26T18:43:24.926Z,84.24
2019-01-26T18:48:27.524Z,84.16
2019-01-26T18:53:30.527Z,84.19
2019-01-26T18:58:33.178Z,84.22
2019-01-26T19:04:18.167Z,84.15
2019-01-26T19:09:21.552Z,84.16
2019-01-26T19:14:23.807Z,84.19
2019-01-26T19:19:26.119Z,84.26
2019-01-26T19:24:29.226Z,84.24
2019-01-26T19:29:32.218Z,84.32
2019-01-26T19:34:34.883Z,84.15
2019-01-26T19:39:37.211Z,84.24
2019-01-26T19:44:39.433Z,84.23
2019-01-26T19:49:41.802Z,84.26
2019-01-26T19:54:44.502Z,84.36
2019-01-26T19:59:47.504Z,84.34
2019-01-26T20:04:51.016Z,84.31
2019-01-26T20:09:53.289Z,84.34
2019-01-26T20:14:56.188Z,84.49
2019-01-26T20:19:58.696Z,84.55
2019-01-26T20:25:00.934Z,84.57
2019-01-26T20:30:07.250Z,84.59
2019-01-26T20:35:09.774Z,84.61
2019-01-26T20:40:15.229Z,84.68
2019-01-26T20:45:38.645Z,84.74
2019-01-26T20:50:41.863Z,84.89
2019-01-26T20:55:44.312Z,84.97
2019-01-26T21:00:46.817Z,84.96
2019-01-26T21:05:49.738Z,85.07
2019-01-26T21:10:52.222Z,85.14
2019-01-26T21:15:54.925Z,85.19
2019-01-26T21:20:57.261Z,85.27
2019-01-26T21:25:59.723Z,85.41
2019-01-26T21:31:02.193Z,85.51
2019-01-26T21:36:05.179Z,85.62
2019-01-26T21:41:07.447Z,85.77
2019-01-26T21:46:09.955Z,85.78
2019-01-26T21:51:12.203Z,85.92
2019-01-26T21:56:15.781Z,86.01
2019-01-26T22:01:18.375Z,86.09
2019-01-26T22:06:20.668Z,86.18
2019-01-26T22:11:23.031Z,86.30
2019-01-26T22:16:25.265Z,86.33
2019-01-26T22:21:28.008Z,86.38
2019-01-26T22:26:31.131Z,86.43
2019-01-26T22:31:33.779Z,86.47
2019-01-26T22:36:37.010Z,86.54
2019-01-26T22:41:39.275Z,86.55
2019-01-26T22:46:41.557Z,86.58
2019-01-26T22:51:44.083Z,86.62
2019-01-26T22:56:46.975Z,86.61
2019-01-26T23:01:49.816Z,86.65
2019-01-26T23:07:48.536Z,86.62
2019-01-26T23:13:17.755Z,86.64
2019-01-26T23:19:01.857Z,86.50
2019-01-26T23:24:56.965Z,86.55
2019-01-26T23:30:38.553Z,86.47
2019-01-26T23:35:41.045Z,86.40
2019-01-26T23:40:43.387Z,86.34
2019-01-26T23:45:45.620Z,86.29
2019-01-26T23:50:48.430Z,86.21
2019-01-26T23:55:50.715Z,86.16
